createdAt,value
2018-10-11T00:02:01.319Z,16.50
2018-10-11T00:04:30.254Z,16.55
2018-10-11T00:06:59.235Z,16.13
2018-10-11T00:09:28.141Z,16.13
2018-10-11T00:11:57.150Z,15.97
2018-10-11T00:14:26.103Z,15.67
2018-10-11T00:16:55.074Z,16.11
2018-10-11T00:19:24.061Z,15.96
2018-10-11T00:21:52.990Z,15.63
2018-10-11T00:24:21.947Z,15.75
2018-10-11T00:26:50.897Z,15.42
2018-10-11T00:29:19.876Z,15.88
2018-10-11T00:31:48.822Z,15.91
2018-10-11T00:34:17.806Z,15.94
2018-10-11T00:36:46.765Z,15.82
2018-10-11T00:39:15.723Z,15.54
2018-10-11T00:41:44.630Z,15.72
2018-10-11T00:44:16.432Z,15.78
2018-10-11T00:46:47.134Z,15.88
2018-10-11T00:49:16.109Z,15.92
2018-10-11T00:51:45.039Z,15.86
2018-10-11T00:54:14.003Z,15.79
2018-10-11T00:56:42.924Z,15.82
2018-10-11T00:59:12.342Z,15.79
2018-10-11T01:01:41.873Z,15.86
2018-10-11T01:04:11.347Z,15.74
2018-10-11T01:06:40.522Z,15.33
2018-10-11T01:09:11.048Z,14.68
2018-10-11T01:11:40.376Z,15.25
2018-10-11T01:14:09.917Z,15.56
2018-10-11T01:16:38.882Z,14.68
2018-10-11T01:19:07.935Z,15.08
2018-10-11T01:21:36.873Z,14.41
2018-10-11T01:24:05.835Z,15.09
2018-10-11T01:26:34.867Z,15.26
2018-10-11T01:29:03.853Z,14.89
2018-10-11T01:31:32.761Z,14.91
2018-10-11T01:34:01.726Z,15.03
2018-10-11T01:36:30.646Z,15.11
2018-10-11T01:38:59.642Z,15.24
2018-10-11T01:41:28.635Z,15.29
2018-10-11T01:43:57.658Z,15.22
2018-10-11T01:46:26.568Z,15.20
2018-10-11T01:48:55.558Z,15.33
2018-10-11T01:51:24.508Z,15.00
2018-10-11T01:53:53.462Z,15.33
2018-10-11T01:56:22.415Z,15.24
2018-10-11T01:58:51.366Z,15.35
2018-10-11T02:01:20.349Z,15.15
2018-10-11T02:03:49.287Z,15.15
2018-10-11T02:06:18.262Z,15.21
2018-10-11T02:08:47.205Z,14.86
2018-10-11T02:11:16.216Z,15.02
2018-10-11T02:13:45.158Z,15.30
2018-10-11T02:16:14.133Z,15.03
2018-10-11T02:18:43.142Z,15.21
2018-10-11T02:21:12.085Z,14.61
2018-10-11T02:23:41.047Z,14.75
2018-10-11T02:26:09.985Z,14.13
2018-10-11T02:28:38.916Z,14.70
2018-10-11T02:31:07.990Z,13.86
2018-10-11T02:33:36.997Z,14.19
2018-10-11T02:36:05.953Z,14.36
2018-10-11T02:38:34.982Z,14.74
2018-10-11T02:41:03.962Z,14.83
2018-10-11T02:43:32.895Z,14.49
2018-10-11T02:46:01.855Z,14.33
2018-10-11T02:48:30.811Z,14.65
2018-10-11T02:50:59.781Z,14.50
2018-10-11T02:53:28.706Z,14.19
2018-10-11T02:55:57.804Z,14.32
2018-10-11T02:58:37.818Z,14.41
2018-10-11T03:01:06.786Z,14.48
2018-10-11T03:03:35.810Z,14.49
2018-10-11T03:06:04.804Z,13.85
2018-10-11T03:08:33.736Z,14.28
2018-10-11T03:11:02.696Z,14.30
2018-10-11T03:13:31.618Z,13.77
2018-10-11T03:16:00.635Z,14.25
2018-10-11T03:18:29.550Z,13.91
2018-10-11T03:20:58.481Z,13.34
2018-10-11T03:23:27.418Z,13.62
2018-10-11T03:25:56.361Z,13.97
2018-10-11T03:28:25.315Z,14.09
2018-10-11T03:30:54.315Z,13.38
2018-10-11T03:33:23.250Z,13.63
2018-10-11T03:35:52.162Z,13.89
2018-10-11T03:38:21.127Z,14.00
2018-10-11T03:40:50.116Z,13.37
2018-10-11T03:43:19.071Z,14.02
2018-10-11T03:45:48.013Z,13.97
2018-10-11T03:48:16.962Z,13.85
2018-10-11T03:50:45.869Z,13.88
2018-10-11T03:53:14.842Z,13.84
2018-10-11T03:55:43.754Z,13.71
2018-10-11T03:58:12.782Z,13.22
2018-10-11T04:00:41.706Z,12.83
2018-10-11T04:03:10.677Z,13.48
2018-10-11T04:05:39.625Z,13.55
2018-10-11T04:08:08.585Z,13.82
2018-10-11T04:10:37.509Z,13.83
2018-10-11T04:13:06.474Z,13.47
2018-10-11T04:15:35.535Z,12.96
2018-10-11T04:18:04.486Z,12.58
2018-10-11T04:20:33.435Z,12.85
2018-10-11T04:23:02.405Z,13.07
2018-10-11T04:25:31.326Z,12.83
2018-10-11T04:28:00.274Z,13.03
2018-10-11T04:30:29.194Z,12.88
2018-10-11T04:32:58.510Z,13.24
2018-10-11T04:35:27.412Z,13.31
2018-10-11T04:37:56.397Z,13.29
2018-10-11T04:40:25.332Z,13.39
2018-10-11T04:42:54.366Z,13.15
2018-10-11T04:45:23.312Z,12.49
2018-10-11T04:47:52.272Z,12.99
2018-10-11T04:50:21.190Z,12.99
2018-10-11T04:52:50.159Z,13.08
2018-10-11T04:55:19.065Z,13.08
2018-10-11T04:57:48.047Z,12.56
2018-10-11T05:00:17.215Z,12.76
2018-10-11T05:02:46.377Z,12.89
2018-10-11T05:05:15.530Z,12.99
2018-10-11T05:07:44.718Z,13.19
2018-10-11T05:10:13.878Z,12.88
2018-10-11T05:12:43.020Z,12.34
2018-10-11T05:15:12.211Z,12.38
2018-10-11T05:17:41.803Z,12.11
2018-10-11T05:20:11.027Z,12.29
2018-10-11T05:22:40.241Z,12.23
2018-10-11T05:25:09.483Z,12.23
2018-10-11T05:27:38.627Z,12.27
2018-10-11T05:30:07.865Z,12.11
2018-10-11T05:32:37.217Z,12.02
2018-10-11T05:35:06.728Z,12.08
2018-10-11T05:37:35.898Z,11.80
2018-10-11T05:40:05.122Z,11.69
2018-10-11T05:42:34.405Z,11.73
2018-10-11T05:45:10.400Z,11.46
2018-10-11T05:47:39.621Z,11.81
2018-10-11T05:50:08.933Z,12.29
2018-10-11T05:52:38.164Z,12.23
2018-10-11T05:55:08.047Z,12.08
2018-10-11T05:57:37.299Z,12.01
2018-10-11T06:00:06.755Z,11.83
2018-10-11T06:02:36.440Z,12.11
2018-10-11T06:05:05.977Z,12.32
2018-10-11T06:07:35.349Z,12.42
2018-10-11T06:10:04.677Z,11.99
2018-10-11T06:12:33.901Z,12.43
2018-10-11T06:15:03.671Z,12.89
2018-10-11T06:17:32.897Z,12.88
2018-10-11T06:20:02.054Z,13.11
2018-10-11T06:22:31.196Z,12.97
2018-10-11T06:25:00.332Z,13.55
2018-10-11T06:27:29.424Z,13.77
2018-10-11T06:29:58.512Z,13.98
2018-10-11T06:32:27.737Z,13.91
2018-10-11T06:34:56.892Z,13.66
2018-10-11T06:37:26.148Z,13.95
2018-10-11T06:39:55.809Z,13.94
2018-10-11T06:42:25.285Z,13.80
2018-10-11T06:44:55.529Z,13.83
2018-10-11T06:47:24.734Z,14.12
2018-10-11T06:49:53.943Z,13.44
2018-10-11T06:52:23.081Z,13.39
2018-10-11T06:54:52.231Z,13.17
2018-10-11T06:57:21.441Z,13.13
2018-10-11T06:59:50.584Z,12.94
2018-10-11T07:02:19.802Z,13.33
2018-10-11T07:04:49.008Z,13.83
2018-10-11T07:07:18.789Z,14.29
2018-10-11T07:09:47.869Z,13.81
2018-10-11T07:12:17.099Z,14.19
2018-10-11T07:14:47.136Z,15.10
2018-10-11T07:17:17.305Z,15.47
2018-10-11T07:19:46.851Z,15.43
2018-10-11T07:22:16.108Z,15.10
2018-10-11T07:24:45.237Z,15.07
2018-10-11T07:27:14.459Z,14.87
2018-10-11T07:29:43.607Z,15.24
2018-10-11T07:32:12.901Z,15.27
2018-10-11T07:34:42.162Z,14.96
2018-10-11T07:37:11.384Z,15.79
2018-10-11T07:39:40.529Z,15.33
2018-10-11T07:42:09.868Z,15.80
2018-10-11T07:44:39.030Z,15.09
2018-10-11T07:47:08.584Z,15.35
2018-10-11T07:49:38.026Z,15.33
2018-10-11T07:52:07.149Z,15.84
2018-10-11T07:54:36.251Z,16.06
2018-10-11T07:57:05.442Z,15.76
2018-10-11T07:59:34.871Z,15.98
2018-10-11T08:02:04.410Z,16.13
2018-10-11T08:04:33.540Z,15.72
2018-10-11T08:07:02.716Z,16.44
2018-10-11T08:09:31.776Z,16.74
2018-10-11T08:12:01.446Z,17.57
2018-10-11T08:14:30.451Z,17.17
2018-10-11T08:16:59.900Z,17.29
2018-10-11T08:19:29.145Z,16.90
2018-10-11T08:21:58.212Z,17.22
2018-10-11T08:24:27.564Z,16.75
2018-10-11T08:26:56.750Z,17.28
2018-10-11T08:29:26.456Z,17.84
2018-10-11T08:31:56.035Z,18.14
2018-10-11T08:34:25.787Z,18.41
2018-10-11T08:36:55.967Z,17.86
2018-10-11T08:39:25.237Z,17.20
2018-10-11T08:41:54.406Z,18.49
2018-10-11T08:44:23.762Z,18.36
2018-10-11T08:46:53.198Z,18.28
2018-10-11T08:49:22.556Z,17.83
2018-10-11T08:51:51.849Z,19.17
2018-10-11T08:54:26.477Z,18.95
2018-10-11T08:56:55.992Z,19.67
2018-10-11T08:59:25.279Z,19.05
2018-10-11T09:01:54.336Z,18.24
2018-10-11T09:04:23.511Z,19.13
2018-10-11T09:06:52.949Z,18.28
2018-10-11T09:09:22.178Z,19.31
2018-10-11T09:11:51.536Z,18.67
2018-10-11T09:14:21.065Z,19.32
2018-10-11T09:16:50.262Z,19.87
2018-10-11T09:19:19.561Z,19.43
2018-10-11T09:21:48.753Z,19.17
2018-10-11T09:24:17.990Z,19.53
2018-10-11T09:26:47.440Z,19.89
2018-10-11T09:35:06.962Z,19.33
2018-10-11T09:37:37.241Z,20.33
2018-10-11T09:40:07.787Z,20.04
2018-10-11T09:42:38.021Z,19.98
2018-10-11T09:45:08.237Z,19.91
2018-10-11T09:47:37.668Z,20.34
2018-10-11T09:50:07.182Z,20.16
2018-10-11T09:52:38.241Z,19.91
2018-10-11T09:55:07.841Z,20.01
2018-10-11T09:57:38.537Z,20.60
2018-10-11T10:00:15.346Z,20.18
2018-10-11T10:02:45.430Z,20.79
2018-10-11T10:05:14.983Z,20.61
2018-10-11T10:08:00.081Z,19.73
2018-10-11T10:10:41.371Z,20.36
2018-10-11T10:13:23.507Z,20.55
2018-10-11T10:15:58.281Z,21.38
2018-10-11T10:18:38.412Z,21.06
2018-10-11T10:21:21.508Z,21.51
2018-10-11T10:23:56.674Z,20.71
2018-10-11T10:26:43.061Z,20.87
2018-10-11T10:32:08.058Z,22.19
2018-10-11T10:34:36.962Z,22.63
2018-10-11T10:37:05.977Z,20.76
2018-10-11T10:39:34.924Z,20.24
2018-10-11T10:42:03.878Z,21.45
2018-10-11T10:44:32.829Z,21.51
2018-10-11T10:47:01.827Z,22.29
2018-10-11T10:49:30.723Z,22.46
2018-10-11T10:51:59.689Z,22.48
2018-10-11T10:54:29.719Z,22.48
2018-10-11T10:56:59.280Z,21.44
2018-10-11T10:59:28.338Z,21.35
2018-10-11T11:01:57.408Z,23.10
2018-10-11T11:04:26.389Z,23.65
2018-10-11T11:06:55.563Z,22.26
2018-10-11T11:09:24.529Z,22.25
2018-10-11T11:11:53.519Z,23.68
2018-10-11T11:14:22.435Z,22.70
2018-10-11T11:16:51.414Z,22.56
2018-10-11T11:19:20.326Z,22.26
2018-10-11T11:21:49.308Z,22.23
2018-10-11T11:24:18.235Z,22.68
2018-10-11T11:26:47.190Z,21.72
2018-10-11T11:29:16.115Z,22.42
2018-10-11T11:31:45.098Z,23.02
2018-10-11T11:34:14.091Z,23.59
2018-10-11T11:36:42.985Z,22.05
2018-10-11T11:39:11.950Z,22.72
2018-10-11T11:41:40.849Z,23.69
2018-10-11T11:44:09.803Z,22.09
2018-10-11T11:46:38.727Z,22.13
2018-10-11T11:49:07.675Z,21.95
2018-10-11T11:51:36.640Z,22.59
2018-10-11T11:54:09.666Z,22.45
2018-10-11T11:56:38.630Z,23.50
2018-10-11T11:59:07.721Z,23.83
2018-10-11T12:01:36.726Z,22.29
2018-10-11T12:04:05.695Z,22.26
2018-10-11T12:06:34.607Z,23.48
2018-10-11T12:09:03.818Z,23.69
2018-10-11T12:11:32.764Z,23.39
2018-10-11T12:14:01.736Z,22.53
2018-10-11T12:16:30.751Z,23.31
2018-10-11T12:18:59.746Z,24.06
2018-10-11T12:21:29.163Z,23.14
2018-10-11T12:23:58.118Z,23.90
2018-10-11T12:26:27.050Z,23.81
2018-10-11T12:28:56.025Z,24.42
2018-10-11T12:31:24.972Z,25.35
2018-10-11T12:33:53.929Z,24.92
2018-10-11T12:36:22.927Z,24.74
2018-10-11T12:38:52.007Z,24.68
2018-10-11T12:41:20.978Z,25.34
2018-10-11T12:43:49.985Z,25.85
2018-10-11T12:46:18.894Z,25.54
2018-10-11T12:48:47.901Z,25.80
2018-10-11T12:51:16.809Z,26.42
2018-10-11T12:53:48.303Z,25.13
2018-10-11T12:56:14.864Z,23.58
2018-10-11T12:58:43.955Z,23.02
2018-10-11T13:01:16.354Z,22.81
2018-10-11T13:03:41.871Z,22.57
2018-10-11T13:06:10.754Z,22.71
2018-10-11T13:08:39.689Z,22.49
2018-10-11T13:11:08.639Z,23.50
2018-10-11T13:13:37.620Z,22.87
2018-10-11T13:16:06.546Z,22.98
2018-10-11T13:18:35.486Z,23.31
2018-10-11T13:21:04.477Z,23.14
2018-10-11T13:23:33.406Z,22.63
2018-10-11T13:26:02.390Z,22.89
2018-10-11T13:28:31.362Z,23.13
2018-10-11T13:31:00.326Z,23.44
2018-10-11T13:33:29.294Z,23.25
2018-10-11T13:35:58.277Z,23.37
2018-10-11T13:38:27.218Z,23.74
2018-10-11T13:40:59.549Z,23.52
2018-10-11T13:43:25.257Z,24.02
2018-10-11T13:45:58.087Z,22.90
2018-10-11T13:48:23.208Z,22.22
2018-10-11T13:50:52.478Z,22.38
2018-10-11T13:53:24.525Z,22.20
2018-10-11T13:55:53.620Z,22.35
2018-10-11T13:58:19.452Z,22.39
2018-10-11T14:00:48.455Z,22.29
2018-10-11T14:03:17.390Z,22.13
2018-10-11T14:05:46.445Z,22.35
2018-10-11T14:08:15.420Z,22.23
2018-10-11T14:10:44.493Z,22.27
2018-10-11T14:13:16.432Z,22.44
2018-10-11T14:15:42.423Z,22.46
2018-10-11T14:18:12.646Z,22.74
2018-10-11T14:20:40.411Z,22.68
2018-10-11T14:23:09.372Z,22.76
2018-10-11T14:25:38.370Z,23.05
2018-10-11T14:28:07.474Z,22.85
2018-10-11T14:30:36.478Z,22.78
2018-10-11T14:33:05.431Z,23.31
2018-10-11T14:35:34.422Z,22.75
2018-10-11T14:38:03.366Z,22.25
2018-10-11T14:40:32.455Z,22.18
2018-10-11T14:43:01.479Z,22.19
2018-10-11T14:45:30.393Z,22.18
2018-10-11T14:47:59.365Z,22.25
2018-10-11T14:50:28.327Z,22.29
2018-10-11T14:52:57.377Z,22.03
2018-10-11T14:55:26.371Z,22.03
2018-10-11T14:57:55.363Z,22.15
2018-10-11T15:00:24.284Z,22.16
2018-10-11T15:02:53.329Z,22.13
2018-10-11T15:05:22.334Z,21.92
2018-10-11T15:07:51.374Z,21.87
2018-10-11T15:10:20.377Z,22.00
2018-10-11T15:12:49.334Z,21.99
2018-10-11T15:15:18.268Z,21.93
2018-10-11T15:17:47.271Z,21.83
2018-10-11T15:20:16.350Z,21.92
2018-10-11T15:22:45.314Z,21.68
2018-10-11T15:25:14.233Z,21.67
2018-10-11T15:27:43.194Z,21.67
2018-10-11T15:30:12.111Z,21.96
2018-10-11T15:32:41.083Z,21.78
2018-10-11T15:35:10.062Z,21.63
2018-10-11T15:37:39.085Z,21.62
2018-10-11T15:40:08.152Z,21.63
2018-10-11T15:42:37.203Z,21.62
2018-10-11T15:45:07.318Z,21.58
2018-10-11T15:47:36.426Z,21.62
2018-10-11T15:50:05.411Z,21.84
2018-10-11T15:52:34.821Z,21.77
2018-10-11T15:55:03.726Z,21.94
2018-10-11T15:57:32.744Z,21.88
2018-10-11T16:00:01.937Z,22.00
2018-10-11T16:02:31.002Z,21.90
2018-10-11T16:04:59.955Z,21.67
2018-10-11T16:07:28.865Z,21.46
2018-10-11T16:09:57.858Z,21.56
2018-10-11T16:12:26.806Z,21.64
2018-10-11T16:14:55.773Z,21.39
2018-10-11T16:17:24.672Z,21.38
2018-10-11T16:19:53.698Z,21.32
2018-10-11T16:22:22.653Z,21.23
2018-10-11T16:24:51.756Z,20.97
2018-10-11T16:27:20.657Z,21.18
2018-10-11T16:29:49.805Z,21.53
2018-10-11T16:32:18.813Z,21.85
2018-10-11T16:34:47.733Z,21.86
2018-10-11T16:37:16.676Z,21.90
2018-10-11T16:39:45.637Z,21.62
2018-10-11T16:42:14.547Z,21.60
2018-10-11T16:44:43.529Z,21.57
2018-10-11T16:47:12.434Z,21.32
2018-10-11T16:49:41.472Z,21.49
2018-10-11T16:52:10.394Z,21.53
2018-10-11T16:54:42.494Z,21.17
2018-10-11T16:57:12.583Z,21.07
2018-10-11T16:59:41.534Z,21.26
2018-10-11T17:02:10.461Z,21.22
2018-10-11T17:04:39.643Z,21.17
2018-10-11T17:07:08.498Z,20.79
2018-10-11T17:09:37.548Z,20.66
2018-10-11T17:12:07.196Z,20.54
2018-10-11T17:14:36.182Z,20.55
2018-10-11T17:17:05.178Z,20.48
2018-10-11T17:19:34.139Z,20.30
2018-10-11T17:22:03.098Z,20.04
2018-10-11T17:24:32.083Z,20.18
2018-10-11T17:27:01.005Z,20.05
2018-10-11T17:29:30.005Z,20.01
2018-10-11T17:31:59.168Z,19.98
2018-10-11T17:34:28.102Z,20.01
2018-10-11T17:36:57.014Z,19.85
2018-10-11T17:39:25.963Z,19.61
2018-10-11T17:41:54.961Z,19.50
2018-10-11T17:44:23.906Z,19.40
2018-10-11T17:46:52.887Z,19.43
2018-10-11T17:49:21.893Z,19.43
2018-10-11T17:51:50.989Z,19.31
2018-10-11T17:54:19.933Z,19.39
2018-10-11T17:56:49.028Z,19.31
2018-10-11T17:59:17.922Z,19.29
2018-10-11T18:01:46.864Z,19.33
2018-10-11T18:04:15.812Z,19.37
2018-10-11T18:06:44.761Z,19.31
2018-10-11T18:09:13.677Z,19.39
2018-10-11T18:11:42.647Z,19.45
2018-10-11T18:14:12.299Z,19.52
2018-10-11T18:16:41.299Z,19.54
2018-10-11T18:19:10.239Z,19.53
2018-10-11T18:21:39.353Z,19.38
2018-10-11T18:24:08.396Z,19.37
2018-10-11T18:26:37.418Z,19.41
2018-10-11T18:29:06.486Z,19.45
2018-10-11T18:31:35.530Z,19.48
2018-10-11T18:34:04.466Z,19.45
2018-10-11T18:36:33.468Z,19.36
2018-10-11T18:39:02.692Z,19.27
2018-10-11T18:41:31.661Z,19.17
2018-10-11T18:44:00.556Z,19.61
2018-10-11T18:46:29.510Z,19.82
2018-10-11T18:48:58.434Z,19.83
2018-10-11T18:51:27.409Z,19.69
2018-10-11T18:53:56.373Z,19.52
2018-10-11T18:56:25.425Z,19.68
2018-10-11T18:58:54.495Z,19.82
2018-10-11T19:01:23.616Z,19.76
2018-10-11T19:03:52.789Z,19.85
2018-10-11T19:06:21.845Z,19.76
2018-10-11T19:08:50.737Z,19.58
2018-10-11T19:11:19.758Z,19.32
2018-10-11T19:13:48.746Z,19.11
2018-10-11T19:16:17.686Z,19.29
2018-10-11T19:18:46.655Z,18.83
2018-10-11T19:21:15.541Z,19.24
2018-10-11T19:23:44.513Z,19.36
2018-10-11T19:26:13.424Z,18.96
2018-10-11T19:28:42.413Z,19.20
2018-10-11T19:31:11.330Z,19.49
2018-10-11T19:33:40.324Z,19.35
2018-10-11T19:36:09.415Z,19.49
2018-10-11T19:38:38.477Z,19.82
2018-10-11T19:41:07.415Z,19.86
2018-10-11T19:43:36.375Z,19.98
2018-10-11T19:46:05.265Z,19.65
2018-10-11T19:48:34.259Z,19.59
2018-10-11T19:51:03.185Z,19.67
2018-10-11T19:53:32.166Z,19.64
2018-10-11T19:56:01.109Z,19.42
2018-10-11T19:58:30.101Z,19.62
2018-10-11T20:00:59.462Z,19.73
2018-10-11T20:03:28.494Z,19.71
2018-10-11T20:05:57.467Z,19.66
2018-10-11T20:08:26.505Z,19.76
2018-10-11T20:10:55.575Z,19.64
2018-10-11T20:13:24.550Z,19.66
2018-10-11T20:15:53.522Z,19.72
2018-10-11T20:18:22.461Z,19.69
2018-10-11T20:20:51.400Z,19.75
2018-10-11T20:23:20.355Z,19.99
2018-10-11T20:25:49.354Z,19.91
2018-10-11T20:28:18.303Z,19.76
2018-10-11T20:30:47.427Z,19.43
2018-10-11T20:33:16.366Z,19.14
2018-10-11T20:35:45.329Z,18.86
2018-10-11T20:38:14.274Z,18.60
2018-10-11T20:40:43.246Z,18.55
2018-10-11T20:43:12.204Z,18.32
2018-10-11T20:45:41.233Z,18.29
2018-10-11T20:48:10.186Z,18.34
2018-10-11T20:50:39.177Z,18.18
2018-10-11T20:53:08.081Z,18.06
2018-10-11T20:55:37.118Z,17.93
2018-10-11T20:58:06.046Z,18.15
2018-10-11T21:00:35.070Z,18.47
2018-10-11T21:03:04.379Z,18.42
2018-10-11T21:05:33.468Z,17.95
2018-10-11T21:08:02.394Z,17.80
2018-10-11T21:10:31.412Z,17.67
2018-10-11T21:13:00.340Z,17.94
2018-10-11T21:15:29.347Z,18.30
2018-10-11T21:17:58.317Z,18.53
2018-10-11T21:20:27.423Z,18.47
2018-10-11T21:22:56.266Z,18.51
2018-10-11T21:25:25.226Z,18.49
2018-10-11T21:27:54.141Z,18.10
2018-10-11T21:30:23.317Z,17.57
2018-10-11T21:32:52.231Z,17.79
2018-10-11T21:35:21.158Z,18.14
2018-10-11T21:37:50.207Z,17.98
2018-10-11T21:40:19.152Z,18.10
2018-10-11T21:42:48.143Z,18.14
2018-10-11T21:45:17.083Z,18.06
2018-10-11T21:47:46.080Z,18.02
2018-10-11T21:50:15.027Z,18.00
2018-10-11T21:52:44.091Z,18.24
2018-10-11T21:55:12.963Z,18.07
2018-10-11T21:57:41.951Z,18.11
2018-10-11T22:00:11.328Z,17.91
2018-10-11T22:02:40.345Z,17.94
2018-10-11T22:05:09.357Z,17.89
2018-10-11T22:07:38.353Z,18.19
2018-10-11T22:10:07.348Z,17.87
2018-10-11T22:12:36.322Z,17.95
2018-10-11T22:15:05.589Z,17.87
2018-10-11T22:17:34.418Z,17.92
2018-10-11T22:20:03.359Z,17.76
2018-10-11T22:22:32.314Z,17.80
2018-10-11T22:25:01.213Z,18.01
2018-10-11T22:27:30.182Z,17.47
2018-10-11T22:29:59.101Z,17.59
2018-10-11T22:32:28.062Z,17.68
2018-10-11T22:34:56.970Z,17.95
2018-10-11T22:37:25.910Z,17.87
2018-10-11T22:39:54.817Z,17.72
2018-10-11T22:42:23.810Z,17.74
2018-10-11T22:44:52.710Z,17.50
2018-10-11T22:47:21.706Z,17.58
2018-10-11T22:49:50.639Z,17.37
2018-10-11T22:52:19.546Z,16.93
2018-10-11T22:54:48.470Z,17.20
2018-10-11T22:57:17.366Z,17.32
2018-10-11T22:59:46.595Z,16.89
2018-10-11T23:02:15.545Z,17.08
2018-10-11T23:04:44.494Z,16.09
2018-10-11T23:07:13.395Z,16.72
2018-10-11T23:09:42.354Z,17.18
2018-10-11T23:12:11.261Z,17.19
2018-10-11T23:14:40.287Z,17.08
2018-10-11T23:17:09.213Z,17.05
2018-10-11T23:19:38.186Z,16.93
2018-10-11T23:22:07.136Z,16.88
2018-10-11T23:24:36.106Z,17.01
2018-10-11T23:27:05.066Z,17.00
2018-10-11T23:29:34.051Z,16.83
2018-10-11T23:32:02.975Z,16.73
2018-10-11T23:34:31.982Z,16.70
2018-10-11T23:37:00.948Z,16.78
2018-10-11T23:39:29.885Z,16.67
2018-10-11T23:41:58.833Z,16.81
2018-10-11T23:44:27.830Z,16.95
2018-10-11T23:46:56.754Z,16.90
2018-10-11T23:49:25.717Z,17.13
2018-10-11T23:51:54.630Z,17.02
2018-10-11T23:54:23.606Z,16.98
2018-10-11T23:56:52.656Z,16.70
2018-10-11T23:59:21.570Z,16.73
